createdAt,value
2019-05-19T00:01:31.477Z,15.53
2019-05-19T00:04:02.086Z,15.54
2019-05-19T00:06:32.738Z,15.56
2019-05-19T00:09:05.390Z,15.60
2019-05-19T00:11:36.230Z,15.58
2019-05-19T00:14:06.643Z,15.61
2019-05-19T00:16:38.549Z,15.57
2019-05-19T00:19:09.506Z,15.60
2019-05-19T00:21:41.287Z,15.62
2019-05-19T00:24:11.943Z,15.60
2019-05-19T00:26:42.608Z,15.66
2019-05-19T00:29:13.968Z,15.60
2019-05-19T00:31:46.475Z,15.61
2019-05-19T00:34:16.764Z,15.59
2019-05-19T00:36:47.053Z,15.56
2019-05-19T00:39:17.317Z,15.57
2019-05-19T00:41:47.512Z,15.57
2019-05-19T00:44:19.125Z,15.52
2019-05-19T00:46:50.046Z,15.50
2019-05-19T00:49:22.140Z,15.48
2019-05-19T00:51:52.980Z,15.46
2019-05-19T00:54:23.383Z,15.47
2019-05-19T00:56:55.332Z,15.44
2019-05-19T00:59:27.518Z,15.41
2019-05-19T01:01:58.781Z,15.41
2019-05-19T01:04:29.185Z,15.41
2019-05-19T01:06:59.408Z,15.41
2019-05-19T01:09:29.638Z,15.48
2019-05-19T01:11:59.859Z,15.46
2019-05-19T01:14:30.162Z,15.46
2019-05-19T01:17:00.734Z,15.48
2019-05-19T01:19:31.402Z,15.47
2019-05-19T01:22:02.343Z,15.43
2019-05-19T01:24:32.621Z,15.41
2019-05-19T01:27:02.813Z,15.42
2019-05-19T01:29:33.076Z,15.49
2019-05-19T01:32:03.805Z,15.44
2019-05-19T01:34:34.092Z,15.42
2019-05-19T01:37:04.746Z,15.43
2019-05-19T01:39:35.074Z,15.42
2019-05-19T01:42:05.386Z,15.44
2019-05-19T01:44:35.700Z,15.44
2019-05-19T01:47:06.330Z,15.48
2019-05-19T01:49:36.877Z,15.43
2019-05-19T01:52:07.141Z,15.41
2019-05-19T01:54:37.434Z,15.41
2019-05-19T01:57:07.673Z,15.37
2019-05-19T01:59:38.364Z,15.38
2019-05-19T02:02:08.717Z,15.39
2019-05-19T02:04:38.966Z,15.36
2019-05-19T02:07:09.408Z,15.41
2019-05-19T02:09:40.106Z,15.39
2019-05-19T02:12:10.763Z,15.39
2019-05-19T02:14:42.070Z,15.36
2019-05-19T02:17:12.382Z,15.37
2019-05-19T02:19:43.490Z,15.37
2019-05-19T02:22:13.895Z,15.38
2019-05-19T02:24:44.133Z,15.37
2019-05-19T02:27:14.908Z,15.35
2019-05-19T02:29:45.301Z,15.31
2019-05-19T02:32:15.526Z,15.32
2019-05-19T02:34:45.768Z,15.28
2019-05-19T02:37:15.980Z,15.30
2019-05-19T02:39:46.263Z,15.40
2019-05-19T02:42:19.173Z,15.37
2019-05-19T02:44:52.858Z,15.39
2019-05-19T02:47:26.912Z,15.36
2019-05-19T02:50:00.709Z,15.37
2019-05-19T02:52:33.560Z,15.34
2019-05-19T02:55:05.760Z,15.29
2019-05-19T02:57:38.774Z,15.28
2019-05-19T03:00:11.154Z,15.26
2019-05-19T03:02:42.605Z,15.26
2019-05-19T03:05:14.488Z,15.25
2019-05-19T03:07:45.149Z,15.24
2019-05-19T03:10:15.861Z,15.26
2019-05-19T03:12:46.538Z,15.29
2019-05-19T03:15:17.451Z,15.31
2019-05-19T03:17:47.770Z,15.32
2019-05-19T03:20:17.995Z,15.33
2019-05-19T03:22:48.269Z,15.35
2019-05-19T03:25:18.538Z,15.36
2019-05-19T03:27:48.967Z,15.40
2019-05-19T03:30:27.050Z,15.42
2019-05-19T03:33:01.565Z,15.43
2019-05-19T03:35:32.618Z,15.47
2019-05-19T03:38:02.937Z,15.55
2019-05-19T03:40:33.165Z,15.58
2019-05-19T03:43:03.533Z,15.62
2019-05-19T03:45:33.740Z,15.67
2019-05-19T03:48:04.349Z,15.69
2019-05-19T03:50:34.648Z,15.75
2019-05-19T03:53:05.260Z,15.75
2019-05-19T03:55:37.605Z,15.76
2019-05-19T03:58:08.252Z,15.83
2019-05-19T04:00:38.854Z,15.87
2019-05-19T04:03:09.052Z,15.93
2019-05-19T04:05:39.678Z,15.93
2019-05-19T04:08:10.039Z,15.99
2019-05-19T04:10:40.322Z,16.07
2019-05-19T04:13:11.011Z,16.16
2019-05-19T04:15:41.297Z,16.25
2019-05-19T04:18:11.628Z,16.34
2019-05-19T04:20:42.210Z,16.43
2019-05-19T04:23:12.513Z,16.62
2019-05-19T04:25:43.126Z,16.85
2019-05-19T04:28:13.444Z,17.10
2019-05-19T04:30:43.870Z,17.35
2019-05-19T04:33:14.119Z,17.67
2019-05-19T04:35:44.694Z,17.91
2019-05-19T04:38:15.445Z,18.03
2019-05-19T04:40:45.723Z,18.03
2019-05-19T04:43:17.235Z,18.08
2019-05-19T04:45:47.527Z,18.18
2019-05-19T04:48:18.106Z,18.25
2019-05-19T04:50:49.921Z,18.23
2019-05-19T04:53:22.074Z,18.27
2019-05-19T04:55:53.424Z,18.37
2019-05-19T04:58:24.023Z,18.40
2019-05-19T05:00:57.058Z,18.42
2019-05-19T05:03:27.368Z,18.40
2019-05-19T05:05:57.613Z,18.43
2019-05-19T05:08:30.616Z,18.53
2019-05-19T05:11:00.226Z,18.55
2019-05-19T05:13:34.010Z,18.54
2019-05-19T05:16:04.464Z,18.51
2019-05-19T05:18:35.079Z,18.52
2019-05-19T05:21:07.888Z,18.49
2019-05-19T05:23:38.133Z,18.45
2019-05-19T05:26:11.271Z,18.46
2019-05-19T05:28:43.512Z,18.58
2019-05-19T05:31:15.592Z,18.75
2019-05-19T05:33:48.252Z,19.01
2019-05-19T05:36:19.134Z,19.35
2019-05-19T05:38:49.533Z,19.62
2019-05-19T05:41:20.231Z,19.95
2019-05-19T05:43:50.632Z,20.39
2019-05-19T05:46:21.211Z,20.69
2019-05-19T05:48:51.605Z,20.77
2019-05-19T05:51:21.825Z,20.72
2019-05-19T05:53:54.784Z,20.69
2019-05-19T05:56:25.080Z,20.53
2019-05-19T05:58:55.358Z,20.52
2019-05-19T06:01:25.825Z,20.36
2019-05-19T06:03:56.518Z,20.07
2019-05-19T06:06:28.602Z,19.97
2019-05-19T06:08:59.996Z,19.77
2019-05-19T06:11:30.199Z,19.70
2019-05-19T06:14:00.805Z,19.61
2019-05-19T06:16:45.087Z,19.51
2019-05-19T06:19:15.514Z,19.46
2019-05-19T06:21:46.174Z,19.54
2019-05-19T06:24:16.864Z,19.47
2019-05-19T06:26:49.110Z,19.56
2019-05-19T06:29:19.480Z,19.68
2019-05-19T06:31:49.738Z,19.79
2019-05-19T06:34:20.298Z,19.85
2019-05-19T06:36:55.168Z,19.90
2019-05-19T06:39:25.972Z,19.87
2019-05-19T06:41:58.426Z,19.86
2019-05-19T06:44:30.097Z,19.85
2019-05-19T06:47:01.587Z,19.73
2019-05-19T06:49:35.173Z,19.63
2019-05-19T06:52:05.560Z,19.63
2019-05-19T06:54:35.776Z,19.57
2019-05-19T06:57:06.228Z,19.58
2019-05-19T06:59:36.525Z,19.64
2019-05-19T07:02:07.609Z,19.70
2019-05-19T07:04:37.912Z,19.81
2019-05-19T07:07:08.412Z,19.81
2019-05-19T07:09:39.090Z,19.75
2019-05-19T07:12:09.764Z,19.74
2019-05-19T07:14:41.345Z,19.73
2019-05-19T07:17:13.296Z,19.81
2019-05-19T07:19:43.529Z,19.91
2019-05-19T07:22:13.813Z,20.09
2019-05-19T07:24:44.944Z,20.19
2019-05-19T07:27:15.379Z,20.28
2019-05-19T07:29:48.287Z,20.29
2019-05-19T07:32:19.058Z,20.31
2019-05-19T07:34:51.267Z,20.35
2019-05-19T07:37:22.596Z,20.47
2019-05-19T07:39:52.908Z,20.61
2019-05-19T07:42:23.498Z,20.63
2019-05-19T07:44:54.955Z,20.78
2019-05-19T07:47:25.591Z,20.95
2019-05-19T07:49:56.239Z,21.10
2019-05-19T07:52:28.291Z,21.29
2019-05-19T07:54:58.942Z,21.46
2019-05-19T07:57:34.022Z,21.55
2019-05-19T08:00:04.853Z,21.70
2019-05-19T08:02:35.549Z,21.83
2019-05-19T08:05:06.581Z,21.86
2019-05-19T08:07:40.061Z,21.90
2019-05-19T08:10:11.285Z,21.84
2019-05-19T08:12:41.537Z,21.81
2019-05-19T08:15:12.061Z,21.83
2019-05-19T08:17:42.332Z,21.93
2019-05-19T08:20:13.687Z,21.96
2019-05-19T08:22:44.543Z,21.96
2019-05-19T08:25:20.961Z,21.79
2019-05-19T08:27:51.701Z,21.76
2019-05-19T08:30:22.189Z,21.64
2019-05-19T08:32:52.577Z,21.44
2019-05-19T08:35:22.815Z,21.29
2019-05-19T08:37:54.758Z,21.22
2019-05-19T08:40:25.980Z,21.10
2019-05-19T08:42:57.449Z,21.16
2019-05-19T08:45:28.248Z,21.33
2019-05-19T08:47:58.599Z,21.40
2019-05-19T08:50:29.024Z,21.45
2019-05-19T08:52:59.689Z,21.42
2019-05-19T08:55:30.271Z,21.46
2019-05-19T08:58:00.735Z,21.67
2019-05-19T09:00:38.064Z,21.91
2019-05-19T09:03:06.466Z,22.12
2019-05-19T09:05:37.220Z,22.38
2019-05-19T09:08:07.607Z,22.40
2019-05-19T09:10:38.038Z,22.35
2019-05-19T09:13:10.101Z,22.27
2019-05-19T09:15:40.942Z,22.39
2019-05-19T09:18:13.121Z,22.49
2019-05-19T09:20:43.768Z,22.48
2019-05-19T09:23:15.927Z,22.57
2019-05-19T09:25:49.386Z,22.73
2019-05-19T09:28:20.211Z,22.79
2019-05-19T09:30:50.834Z,22.86
2019-05-19T09:33:21.591Z,22.98
2019-05-19T09:35:51.979Z,23.28
2019-05-19T09:38:22.555Z,23.38
2019-05-19T09:40:53.202Z,23.66
2019-05-19T09:43:26.741Z,24.06
2019-05-19T09:45:57.647Z,24.48
2019-05-19T09:48:30.580Z,24.84
2019-05-19T09:51:00.929Z,25.30
2019-05-19T09:53:31.538Z,26.55
2019-05-19T09:56:02.404Z,27.23
2019-05-19T09:58:33.042Z,28.36
2019-05-19T10:01:03.356Z,29.19
2019-05-19T10:03:34.157Z,29.30
2019-05-19T10:06:05.153Z,29.29
2019-05-19T10:08:39.671Z,29.62
2019-05-19T10:11:25.765Z,29.98
2019-05-19T10:13:56.158Z,30.00
2019-05-19T10:16:28.944Z,30.17
2019-05-19T10:19:02.827Z,29.77
2019-05-19T10:21:36.277Z,29.45
2019-05-19T10:24:06.665Z,29.17
2019-05-19T10:26:37.237Z,28.65
2019-05-19T10:29:07.552Z,28.09
2019-05-19T10:32:02.597Z,27.66
2019-05-19T10:34:40.071Z,27.45
2019-05-19T10:37:20.704Z,26.79
2019-05-19T10:39:56.430Z,26.37
2019-05-19T10:42:28.218Z,25.86
2019-05-19T10:45:03.383Z,25.26
2019-05-19T10:47:31.828Z,24.95
2019-05-19T10:50:02.209Z,24.70
2019-05-19T10:52:32.462Z,24.69
2019-05-19T10:55:03.414Z,24.82
2019-05-19T10:57:35.332Z,24.95
2019-05-19T11:00:08.497Z,24.78
2019-05-19T11:02:38.782Z,24.45
2019-05-19T11:05:11.292Z,24.25
2019-05-19T11:07:41.470Z,24.13
2019-05-19T11:10:12.243Z,24.24
2019-05-19T11:12:42.897Z,24.48
2019-05-19T11:15:13.484Z,24.82
2019-05-19T11:17:43.880Z,25.25
2019-05-19T11:20:14.314Z,25.66
2019-05-19T11:22:44.721Z,25.85
2019-05-19T11:25:15.034Z,25.74
2019-05-19T11:27:45.273Z,25.67
2019-05-19T11:30:15.628Z,25.51
2019-05-19T11:32:45.967Z,25.40
2019-05-19T11:35:16.220Z,25.50
2019-05-19T11:37:46.612Z,25.58
2019-05-19T11:40:17.134Z,25.75
2019-05-19T11:42:47.477Z,25.80
2019-05-19T11:45:17.944Z,25.92
2019-05-19T11:47:48.616Z,25.96
2019-05-19T11:50:20.656Z,26.22
2019-05-19T11:52:51.569Z,26.34
2019-05-19T11:55:23.296Z,26.74
2019-05-19T11:57:54.003Z,27.11
2019-05-19T12:00:24.363Z,27.27
2019-05-19T12:02:54.667Z,27.14
2019-05-19T12:05:24.992Z,26.37
2019-05-19T12:07:55.426Z,26.06
2019-05-19T12:10:26.074Z,25.80
2019-05-19T12:12:56.697Z,25.56
2019-05-19T12:15:27.438Z,25.21
2019-05-19T12:17:59.364Z,24.97
2019-05-19T12:20:30.436Z,24.74
2019-05-19T12:23:00.907Z,24.67
2019-05-19T12:25:32.299Z,24.72
2019-05-19T12:28:02.730Z,24.84
2019-05-19T12:30:33.138Z,25.01
2019-05-19T12:33:04.802Z,25.35
2019-05-19T12:35:35.453Z,25.56
2019-05-19T12:38:05.837Z,25.69
2019-05-19T12:40:36.063Z,25.72
2019-05-19T12:43:06.400Z,25.99
2019-05-19T12:45:36.637Z,26.39
2019-05-19T12:48:07.012Z,26.42
2019-05-19T12:50:37.549Z,25.95
2019-05-19T12:53:08.433Z,25.53
2019-05-19T12:55:39.041Z,25.20
2019-05-19T12:58:09.319Z,25.23
2019-05-19T13:00:39.607Z,25.37
2019-05-19T13:03:12.968Z,25.63
2019-05-19T13:05:43.559Z,25.69
2019-05-19T13:08:14.019Z,25.72
2019-05-19T13:10:44.619Z,25.83
2019-05-19T13:13:15.645Z,25.97
2019-05-19T13:15:46.023Z,26.10
2019-05-19T13:18:16.306Z,25.89
2019-05-19T13:20:49.648Z,25.50
2019-05-19T13:23:20.376Z,25.24
2019-05-19T13:25:51.034Z,25.05
2019-05-19T13:28:21.350Z,24.72
2019-05-19T13:30:51.931Z,24.53
2019-05-19T13:33:25.086Z,24.40
2019-05-19T13:35:55.927Z,24.28
2019-05-19T13:38:28.318Z,24.33
2019-05-19T13:40:58.629Z,24.33
2019-05-19T13:43:28.886Z,24.52
2019-05-19T13:45:59.155Z,24.70
2019-05-19T13:48:29.741Z,24.65
2019-05-19T13:51:00.025Z,24.74
2019-05-19T13:53:36.854Z,24.92
2019-05-19T13:56:13.327Z,25.01
2019-05-19T13:58:43.562Z,25.05
2019-05-19T14:01:27.550Z,24.92
2019-05-19T14:03:45.838Z,24.90
2019-05-19T14:06:17.579Z,24.77
2019-05-19T14:08:49.837Z,24.70
2019-05-19T14:11:20.548Z,24.75
2019-05-19T14:13:50.909Z,24.79
2019-05-19T14:16:21.214Z,24.67
2019-05-19T14:18:51.509Z,24.52
2019-05-19T14:21:21.815Z,24.54
2019-05-19T14:23:52.244Z,24.57
2019-05-19T14:26:22.925Z,24.58
2019-05-19T14:28:55.134Z,24.64
2019-05-19T14:31:25.583Z,24.60
2019-05-19T14:33:55.834Z,24.47
2019-05-19T14:36:26.144Z,24.32
2019-05-19T14:39:05.476Z,24.00
2019-05-19T14:41:36.788Z,23.73
2019-05-19T14:44:07.582Z,23.48
2019-05-19T14:46:38.634Z,23.36
2019-05-19T14:49:08.964Z,23.43
2019-05-19T14:51:40.922Z,23.58
2019-05-19T14:54:11.750Z,23.69
2019-05-19T14:56:42.231Z,23.75
2019-05-19T14:59:12.600Z,23.89
2019-05-19T15:01:43.316Z,23.98
2019-05-19T15:04:13.617Z,24.02
2019-05-19T15:06:45.904Z,24.03
2019-05-19T15:09:16.700Z,24.08
2019-05-19T15:11:53.984Z,24.16
2019-05-19T15:14:27.125Z,24.27
2019-05-19T15:16:57.758Z,24.46
2019-05-19T15:19:29.260Z,24.78
2019-05-19T15:21:59.671Z,24.95
2019-05-19T15:24:29.918Z,24.87
2019-05-19T15:27:00.222Z,24.55
2019-05-19T15:29:30.459Z,24.20
2019-05-19T15:32:02.397Z,23.93
2019-05-19T15:34:33.266Z,23.78
2019-05-19T15:37:03.997Z,23.67
2019-05-19T15:39:34.839Z,23.60
2019-05-19T15:42:05.519Z,23.54
2019-05-19T15:44:36.189Z,23.41
2019-05-19T15:47:21.198Z,23.35
2019-05-19T15:50:03.330Z,23.41
2019-05-19T15:52:34.980Z,23.38
2019-05-19T15:55:06.488Z,23.39
2019-05-19T15:57:38.910Z,23.35
2019-05-19T16:00:11.643Z,23.35
2019-05-19T16:02:46.979Z,23.28
2019-05-19T16:05:17.369Z,23.17
2019-05-19T16:07:49.665Z,23.04
2019-05-19T16:10:20.865Z,22.94
2019-05-19T16:12:51.523Z,22.81
2019-05-19T16:15:22.753Z,22.75
2019-05-19T16:17:53.618Z,22.72
2019-05-19T16:20:27.018Z,22.66
2019-05-19T16:23:02.427Z,22.62
2019-05-19T16:25:33.694Z,22.61
2019-05-19T16:28:04.124Z,22.60
2019-05-19T16:30:34.810Z,22.45
2019-05-19T16:33:05.529Z,22.37
2019-05-19T16:35:35.733Z,22.21
2019-05-19T16:38:06.057Z,22.02
2019-05-19T16:40:36.667Z,21.90
2019-05-19T16:43:07.429Z,21.76
2019-05-19T16:45:37.825Z,21.65
2019-05-19T16:48:08.174Z,21.53
2019-05-19T16:50:38.427Z,21.47
2019-05-19T16:53:08.634Z,21.40
2019-05-19T16:55:40.494Z,21.31
2019-05-19T16:58:20.678Z,21.22
2019-05-19T17:00:43.352Z,21.14
2019-05-19T17:03:13.689Z,21.08
2019-05-19T17:05:44.000Z,21.02
2019-05-19T17:08:14.230Z,20.97
2019-05-19T17:10:45.028Z,20.92
2019-05-19T17:13:16.524Z,20.87
2019-05-19T17:15:48.399Z,20.89
2019-05-19T17:18:19.128Z,20.86
2019-05-19T17:20:49.401Z,20.82
2019-05-19T17:23:20.792Z,20.79
2019-05-19T17:25:51.183Z,20.76
2019-05-19T17:28:21.776Z,20.75
2019-05-19T17:30:52.142Z,20.73
2019-05-19T17:33:23.365Z,20.69
2019-05-19T17:35:53.600Z,20.64
2019-05-19T17:38:23.892Z,20.64
2019-05-19T17:40:54.234Z,20.58
2019-05-19T17:43:24.477Z,20.53
2019-05-19T17:45:55.065Z,20.46
2019-05-19T17:48:26.919Z,20.41
2019-05-19T17:50:57.908Z,20.35
2019-05-19T17:53:28.577Z,20.29
2019-05-19T17:56:01.290Z,20.23
2019-05-19T17:58:33.161Z,20.16
2019-05-19T18:01:06.945Z,20.06
2019-05-19T18:03:39.559Z,19.99
2019-05-19T18:06:09.972Z,19.88
2019-05-19T18:08:42.335Z,19.78
2019-05-19T18:11:13.047Z,19.68
2019-05-19T18:13:45.334Z,19.57
2019-05-19T18:16:15.741Z,19.48
2019-05-19T18:18:45.956Z,19.42
2019-05-19T18:21:16.318Z,19.34
2019-05-19T18:23:46.544Z,19.27
2019-05-19T18:26:17.155Z,19.19
2019-05-19T18:28:47.506Z,19.08
2019-05-19T18:31:19.705Z,18.98
2019-05-19T18:33:50.443Z,18.90
2019-05-19T18:36:20.706Z,18.81
2019-05-19T18:38:53.949Z,18.69
2019-05-19T18:41:26.579Z,18.59
2019-05-19T18:44:00.051Z,18.49
2019-05-19T18:46:30.703Z,18.38
2019-05-19T18:49:05.667Z,18.24
2019-05-19T18:51:36.970Z,18.10
2019-05-19T18:54:07.285Z,17.97
2019-05-19T18:56:40.744Z,17.85
2019-05-19T18:59:10.995Z,17.75
2019-05-19T19:01:43.190Z,17.68
2019-05-19T19:04:13.544Z,17.60
2019-05-19T19:06:44.133Z,17.51
2019-05-19T19:09:15.983Z,17.42
2019-05-19T19:11:46.241Z,17.36
2019-05-19T19:14:16.800Z,17.32
2019-05-19T19:16:47.540Z,17.29
2019-05-19T19:19:17.892Z,17.26
2019-05-19T19:21:48.180Z,17.19
2019-05-19T19:24:19.918Z,17.17
2019-05-19T19:26:50.218Z,17.09
2019-05-19T19:29:20.579Z,17.01
2019-05-19T19:31:50.844Z,16.94
2019-05-19T19:34:21.201Z,16.88
2019-05-19T19:36:51.421Z,16.83
2019-05-19T19:39:23.609Z,16.79
2019-05-19T19:41:54.157Z,16.75
2019-05-19T19:44:24.434Z,16.68
2019-05-19T19:46:54.786Z,16.65
2019-05-19T19:49:25.763Z,16.66
2019-05-19T19:51:58.777Z,16.64
2019-05-19T19:54:33.461Z,16.60
2019-05-19T19:57:03.958Z,16.53
2019-05-19T19:59:34.799Z,16.51
2019-05-19T20:02:06.056Z,16.42
2019-05-19T20:04:38.006Z,16.38
2019-05-19T20:07:08.298Z,16.29
2019-05-19T20:09:38.524Z,16.23
2019-05-19T20:12:08.783Z,16.26
2019-05-19T20:14:38.995Z,16.29
2019-05-19T20:17:09.651Z,16.26
2019-05-19T20:19:40.162Z,16.22
2019-05-19T20:22:10.389Z,16.20
2019-05-19T20:24:41.058Z,16.16
2019-05-19T20:27:12.622Z,16.17
2019-05-19T20:29:42.835Z,16.22
2019-05-19T20:32:13.046Z,16.22
2019-05-19T20:34:43.334Z,16.21
2019-05-19T20:37:15.260Z,16.22
2019-05-19T20:39:45.605Z,16.21
2019-05-19T20:42:15.885Z,16.22
2019-05-19T20:44:46.536Z,16.28
2019-05-19T20:47:17.173Z,16.24
2019-05-19T20:49:47.478Z,16.21
2019-05-19T20:52:17.731Z,16.29
2019-05-19T20:54:48.351Z,16.30
2019-05-19T20:57:18.783Z,16.40
2019-05-19T20:59:50.054Z,16.43
2019-05-19T21:02:20.755Z,16.44
2019-05-19T21:04:51.964Z,16.38
2019-05-19T21:07:22.657Z,16.44
2019-05-19T21:09:54.588Z,16.42
2019-05-19T21:12:28.676Z,16.49
2019-05-19T21:15:00.047Z,16.64
2019-05-19T21:17:31.910Z,16.75
2019-05-19T21:20:02.841Z,16.72
2019-05-19T21:22:33.722Z,16.81
2019-05-19T21:25:06.662Z,16.82
2019-05-19T21:27:37.011Z,16.86
2019-05-19T21:30:11.260Z,16.90
2019-05-19T21:32:40.999Z,16.95
2019-05-19T21:35:12.903Z,16.90
2019-05-19T21:37:43.499Z,16.93
2019-05-19T21:40:14.219Z,16.89
2019-05-19T21:42:48.641Z,16.83
2019-05-19T21:45:19.569Z,16.87
2019-05-19T21:47:50.300Z,16.77
2019-05-19T21:50:21.039Z,16.72
2019-05-19T21:52:51.714Z,16.69
2019-05-19T21:55:22.430Z,16.63
2019-05-19T21:57:53.111Z,16.62
2019-05-19T22:00:25.128Z,16.59
2019-05-19T22:02:56.925Z,16.64
2019-05-19T22:05:27.247Z,16.59
2019-05-19T22:08:08.099Z,16.55
2019-05-19T22:10:38.366Z,16.58
2019-05-19T22:13:08.586Z,16.60
2019-05-19T22:15:39.230Z,16.62
2019-05-19T22:18:09.592Z,16.70
2019-05-19T22:20:40.189Z,16.63
2019-05-19T22:23:10.491Z,16.60
2019-05-19T22:25:41.123Z,16.54
2019-05-19T22:28:11.836Z,16.55
2019-05-19T22:30:42.165Z,16.58
2019-05-19T22:33:12.476Z,16.62
2019-05-19T22:35:42.709Z,16.58
2019-05-19T22:38:13.017Z,16.55
2019-05-19T22:40:43.679Z,16.55
2019-05-19T22:43:15.493Z,16.57
2019-05-19T22:45:46.090Z,16.56
2019-05-19T22:48:16.377Z,16.60
2019-05-19T22:50:46.954Z,16.65
2019-05-19T22:53:17.615Z,16.59
2019-05-19T22:55:48.258Z,16.56
2019-05-19T22:58:18.983Z,16.56
2019-05-19T23:00:49.620Z,16.50
2019-05-19T23:03:20.300Z,16.47
2019-05-19T23:05:50.929Z,16.46
2019-05-19T23:08:21.623Z,16.44
2019-05-19T23:10:51.901Z,16.44
2019-05-19T23:13:22.574Z,16.40
2019-05-19T23:15:52.892Z,16.39
2019-05-19T23:18:23.133Z,16.38
2019-05-19T23:20:53.392Z,16.36
2019-05-19T23:23:26.643Z,16.28
2019-05-19T23:25:56.866Z,16.34
2019-05-19T23:28:27.154Z,16.31
2019-05-19T23:30:57.710Z,16.29
2019-05-19T23:33:28.043Z,16.25
2019-05-19T23:35:58.286Z,16.23
2019-05-19T23:38:28.876Z,16.20
2019-05-19T23:40:59.536Z,16.19
2019-05-19T23:43:31.367Z,16.17
2019-05-19T23:46:01.685Z,16.20
2019-05-19T23:48:32.250Z,16.25
2019-05-19T23:51:02.918Z,16.35
2019-05-19T23:53:33.603Z,16.29
2019-05-19T23:56:04.283Z,16.27
2019-05-19T23:58:34.859Z,16.28
